Time;durP1;ratioP1;P1;durP2;ratioP2;P2;SDS_P1;SDS_P2;PMS_P1;PMS_P2;Temp;Humidity;BMP_temperature;BMP_pressure;BME280_temperature;BME280_humidity;BME280_pressure;Samples;Min_cycle;Max_cycle;Signal;HPM_P1;HPM_P2
2022/03/06 00:02:21;;;;;;;2.40;2.00;;;13.20;93.20;;;;;;5063326;28;20472;-63
2022/03/06 00:04:54;;;;;;;1.90;1.53;;;13.10;94.50;;;;;;5064526;28;20464;-64
2022/03/06 00:07:25;;;;;;;2.10;2.00;;;13.10;94.00;;;;;;5063897;28;20484;-64
2022/03/06 00:09:56;;;;;;;3.10;2.27;;;13.00;94.20;;;;;;5064841;28;20448;-64
2022/03/06 00:12:26;;;;;;;2.10;1.90;;;13.00;94.40;;;;;;5062908;28;20462;-64
2022/03/06 00:14:57;;;;;;;3.73;1.83;;;12.90;94.00;;;;;;5064315;28;20790;-64
2022/03/06 00:17:28;;;;;;;1.93;1.83;;;12.90;94.40;;;;;;5064074;28;20456;-64
2022/03/06 00:20:02;;;;;;;2.97;1.50;;;12.90;93.80;;;;;;5064053;28;20452;-64
2022/03/06 00:22:33;;;;;;;2.40;2.20;;;12.80;93.70;;;;;;5062635;28;20447;-64
2022/03/06 00:25:04;;;;;;;1.83;1.63;;;12.80;93.50;;;;;;5064191;28;20452;-64
2022/03/06 00:27:35;;;;;;;2.00;1.90;;;12.70;93.20;;;;;;5063610;28;20490;-64
2022/03/06 00:30:08;;;;;;;2.00;1.83;;;12.70;93.70;;;;;;5063692;28;20452;-64
2022/03/06 00:32:39;;;;;;;2.10;2.00;;;12.60;94.50;;;;;;5061384;28;20630;-64
2022/03/06 00:35:12;;;;;;;2.20;2.00;;;12.50;93.40;;;;;;5064082;28;20448;-63
2022/03/06 00:37:43;;;;;;;3.23;1.73;;;12.50;93.90;;;;;;5056180;28;20535;-63
2022/03/06 00:40:14;;;;;;;2.40;2.20;;;12.40;94.50;;;;;;5063746;28;20531;-64
2022/03/06 00:42:45;;;;;;;2.50;2.30;;;12.40;93.90;;;;;;5061578;28;20776;-62
2022/03/06 00:45:16;;;;;;;2.10;1.90;;;12.40;93.60;;;;;;5064098;28;20515;-63
2022/03/06 00:47:48;;;;;;;2.80;2.60;;;12.40;94.20;;;;;;5062757;28;20560;-64
2022/03/06 00:50:20;;;;;;;2.60;2.07;;;12.40;94.00;;;;;;5063543;28;20448;-64
2022/03/06 00:52:52;;;;;;;2.70;2.50;;;12.30;94.50;;;;;;5062164;28;20453;-64
2022/03/06 00:55:23;;;;;;;2.30;2.10;;;12.30;94.50;;;;;;5063231;28;20451;-64
2022/03/06 00:57:54;;;;;;;1.80;1.70;;;12.30;94.30;;;;;;5063149;28;20448;-63
2022/03/06 01:00:25;;;;;;;3.53;2.00;;;12.20;94.00;;;;;;5063523;28;20459;-64
2022/03/06 01:02:56;;;;;;;2.30;2.10;;;12.20;93.80;;;;;;5062393;28;20467;-64
2022/03/06 01:05:29;;;;;;;1.90;1.70;;;12.10;93.60;;;;;;5063387;28;20452;-64
2022/03/06 01:08:02;;;;;;;1.83;1.73;;;12.10;94.30;;;;;;5058656;28;20945;-63
2022/03/06 01:10:34;;;;;;;2.17;1.97;;;12.00;94.40;;;;;;5054022;28;20483;-63
2022/03/06 01:13:05;;;;;;;4.83;2.17;;;12.00;94.30;;;;;;5060804;28;20455;-64
2022/03/06 01:15:40;;;;;;;1.97;1.87;;;11.90;94.30;;;;;;5062848;28;21086;-64
2022/03/06 01:18:12;;;;;;;2.23;2.00;;;11.80;95.00;;;;;;5063086;28;20440;-63
2022/03/06 01:21:02;;;;;;;2.60;2.40;;;11.70;95.00;;;;;;5063366;28;20807;-65
2022/03/06 01:23:44;;;;;;;1.80;1.70;;;11.80;94.80;;;;;;5039966;28;20466;-63
2022/03/06 01:26:15;;;;;;;2.40;1.90;;;11.70;95.30;;;;;;5060274;28;20475;-64
2022/03/06 01:28:46;;;;;;;2.50;2.30;;;11.70;95.30;;;;;;5061218;28;20440;-65
2022/03/06 01:31:17;;;;;;;1.60;1.50;;;11.60;95.60;;;;;;5062060;28;20455;-63
2022/03/06 01:33:49;;;;;;;3.77;1.90;;;11.60;96.00;;;;;;5061927;28;20559;-63
2022/03/06 01:36:22;;;;;;;2.80;2.13;;;11.50;95.60;;;;;;5061446;28;20456;-64
2022/03/06 01:38:52;;;;;;;2.20;1.83;;;11.50;95.60;;;;;;5061553;28;20934;-64
2022/03/06 01:41:23;;;;;;;2.40;2.20;;;11.40;96.00;;;;;;5060412;28;20451;-64
2022/03/06 01:43:54;;;;;;;2.30;2.10;;;11.30;96.70;;;;;;5042668;28;20568;-64
2022/03/06 01:46:25;;;;;;;2.10;2.00;;;11.30;96.60;;;;;;5058605;28;20943;-64
2022/03/06 01:49:00;;;;;;;2.07;1.97;;;11.20;96.80;;;;;;5058850;28;20453;-64
2022/03/06 01:51:33;;;;;;;3.17;2.23;;;11.20;97.00;;;;;;5061649;28;20482;-64
2022/03/06 01:54:04;;;;;;;2.00;1.90;;;11.10;96.90;;;;;;5059654;28;20457;-63
2022/03/06 01:56:35;;;;;;;1.83;1.73;;;11.10;97.20;;;;;;5058844;28;20512;-64
2022/03/06 01:59:06;;;;;;;2.20;2.07;;;11.00;97.70;;;;;;5059600;28;20452;-66
2022/03/06 02:01:41;;;;;;;2.40;2.20;;;10.90;97.50;;;;;;5063285;28;20472;-64
2022/03/06 02:04:12;;;;;;;4.90;2.73;;;10.80;99.90;;;;;;5058343;28;20460;-64
2022/03/06 02:06:47;;;;;;;2.40;2.17;;;10.80;99.00;;;;;;5060595;28;20464;-64
2022/03/06 02:09:18;;;;;;;2.80;1.83;;;10.70;98.70;;;;;;5061967;28;20520;-64
2022/03/06 02:12:18;;;;;;;2.77;2.23;;;10.60;98.30;;;;;;5059650;28;20459;-63
2022/03/06 02:14:40;;;;;;;3.83;2.90;;;10.60;98.00;;;;;;5059945;28;20477;-63
2022/03/06 02:17:11;;;;;;;2.73;2.00;;;10.50;98.50;;;;;;5056432;28;20508;-64
2022/03/06 02:19:55;;;;;;;4.07;2.10;;;10.50;98.60;;;;;;5062410;28;20453;-68
2022/03/06 02:22:30;;;;;;;3.30;2.20;;;10.50;98.90;;;;;;5055007;28;20463;-63
2022/03/06 02:25:03;;;;;;;3.70;2.40;;;10.40;98.40;;;;;;5059473;28;20460;-65
2022/03/06 02:27:34;;;;;;;3.67;2.58;;;10.40;98.70;;;;;;5061021;28;20484;-65
2022/03/06 02:30:07;;;;;;;2.47;2.30;;;10.40;98.50;;;;;;5060856;28;20198;-65
2022/03/06 02:32:50;;;;;;;2.33;2.17;;;10.30;99.00;;;;;;5061704;28;20532;-63
2022/03/06 02:35:21;;;;;;;2.83;2.23;;;10.20;99.80;;;;;;5063565;28;20460;-63
2022/03/06 02:37:54;;;;;;;2.40;2.07;;;10.20;99.60;;;;;;5064608;28;20452;-63
2022/03/06 02:40:25;;;;;;;2.20;2.10;;;10.10;99.90;;;;;;5061532;28;20453;-65
2022/03/06 02:42:56;;;;;;;2.53;2.13;;;10.10;99.90;;;;;;5061679;28;20543;-66
2022/03/06 02:45:28;;;;;;;3.30;3.03;;;10.10;99.90;;;;;;5063918;28;20457;-63
2022/03/06 02:48:00;;;;;;;4.17;2.93;;;10.00;99.90;;;;;;5061504;28;20222;-69
2022/03/06 02:50:33;;;;;;;2.75;2.50;;;9.90;99.90;;;;;;5062660;28;21110;-63
2022/03/06 02:53:07;;;;;;;2.67;2.47;;;9.90;99.90;;;;;;5065710;28;20201;-62
2022/03/06 02:55:40;;;;;;;2.70;2.50;;;9.90;99.90;;;;;;5062011;28;20257;-64
2022/03/06 02:58:12;;;;;;;2.93;2.30;;;9.80;99.90;;;;;;5062593;28;20228;-64
2022/03/06 03:00:44;;;;;;;2.83;2.57;;;9.70;99.90;;;;;;5062815;28;20480;-63
2022/03/06 03:03:16;;;;;;;2.67;2.47;;;9.70;99.90;;;;;;5062205;28;20440;-62
2022/03/06 03:05:47;;;;;;;2.50;2.27;;;9.60;99.90;;;;;;5065754;28;20479;-61
2022/03/06 03:08:24;;;;;;;3.17;2.90;;;9.60;99.90;;;;;;5062427;28;20583;-63
2022/03/06 03:10:54;;;;;;;3.13;2.72;;;9.50;99.90;;;;;;5076017;28;20460;-61
2022/03/06 03:13:25;;;;;;;2.65;2.45;;;9.50;99.90;;;;;;5064537;28;20331;-61
2022/03/06 03:15:57;;;;;;;2.67;2.43;;;9.50;99.90;;;;;;5065231;28;20230;-61
2022/03/06 03:18:29;;;;;;;2.90;2.70;;;9.50;99.90;;;;;;5065498;28;20750;-61
2022/03/06 03:21:00;;;;;;;2.80;2.60;;;9.50;99.90;;;;;;5066611;28;20186;-60
2022/03/06 03:23:33;;;;;;;5.20;3.00;;;9.40;99.90;;;;;;5065139;28;20456;-63
2022/03/06 03:26:04;;;;;;;3.13;2.90;;;9.40;99.90;;;;;;5065274;28;20492;-62
2022/03/06 03:28:35;;;;;;;3.53;2.80;;;9.40;99.90;;;;;;5063540;28;20218;-65
2022/03/06 03:31:06;;;;;;;3.92;3.63;;;9.30;99.90;;;;;;5063070;28;20563;-65
2022/03/06 03:33:37;;;;;;;4.70;3.90;;;9.20;99.90;;;;;;5064756;28;20196;-65
2022/03/06 03:36:11;;;;;;;4.88;4.47;;;9.10;99.90;;;;;;5064763;28;20289;-63
2022/03/06 03:38:45;;;;;;;4.50;3.80;;;9.00;99.90;;;;;;5064194;28;20198;-63
2022/03/06 03:41:16;;;;;;;3.67;3.38;;;8.90;99.90;;;;;;5063463;28;20617;-64
2022/03/06 03:43:47;;;;;;;3.92;3.60;;;8.90;99.90;;;;;;5063227;28;20210;-63
2022/03/06 03:46:18;;;;;;;3.60;3.30;;;8.80;99.90;;;;;;5064100;28;21204;-63
2022/03/06 03:48:50;;;;;;;3.58;3.05;;;8.70;99.90;;;;;;5062356;28;20488;-63
2022/03/06 03:51:21;;;;;;;3.38;3.00;;;8.60;99.90;;;;;;5065071;28;20644;-65
2022/03/06 03:53:53;;;;;;;3.30;3.00;;;8.60;99.90;;;;;;5064487;28;20277;-65
2022/03/06 03:56:24;;;;;;;3.07;2.77;;;8.60;99.90;;;;;;5062126;28;20464;-65
2022/03/06 03:58:55;;;;;;;3.08;2.88;;;8.50;99.90;;;;;;5060217;28;20524;-64
2022/03/06 04:01:29;;;;;;;4.37;3.40;;;8.50;99.90;;;;;;5064346;28;20202;-64
2022/03/06 04:04:00;;;;;;;4.20;3.80;;;8.40;99.90;;;;;;5062559;28;20795;-65
2022/03/06 04:06:31;;;;;;;3.90;3.53;;;8.40;99.90;;;;;;5064798;28;20198;-63
2022/03/06 04:09:07;;;;;;;5.03;4.00;;;8.30;99.90;;;;;;5056578;28;20691;-67
2022/03/06 04:11:37;;;;;;;5.07;4.22;;;8.30;99.90;;;;;;5063334;28;20216;-63
2022/03/06 04:14:10;;;;;;;4.68;4.05;;;8.20;99.90;;;;;;5068410;28;20266;-66
2022/03/06 04:16:41;;;;;;;5.63;4.65;;;8.10;99.90;;;;;;5063110;28;20201;-65
2022/03/06 04:19:12;;;;;;;4.30;3.90;;;8.10;99.90;;;;;;5062452;28;20221;-64
2022/03/06 04:21:44;;;;;;;4.32;3.65;;;8.00;99.90;;;;;;5064344;28;20536;-63
2022/03/06 04:24:16;;;;;;;3.58;3.28;;;8.00;99.90;;;;;;5063600;28;20611;-64
2022/03/06 04:26:47;;;;;;;3.70;3.40;;;7.90;99.90;;;;;;5063514;28;20204;-64
2022/03/06 04:29:18;;;;;;;5.00;3.90;;;7.80;99.90;;;;;;5062803;28;20252;-65
2022/03/06 04:31:49;;;;;;;3.40;3.20;;;7.80;99.90;;;;;;5061238;28;20201;-64
2022/03/06 04:34:21;;;;;;;6.43;4.57;;;7.80;99.90;;;;;;5062540;28;20196;-65
2022/03/06 04:36:52;;;;;;;3.47;3.15;;;7.70;99.90;;;;;;5063744;28;20208;-67
2022/03/06 04:39:25;;;;;;;3.88;3.20;;;7.70;99.90;;;;;;5063192;28;20214;-65
2022/03/06 04:41:56;;;;;;;3.78;3.30;;;7.70;99.90;;;;;;5063858;28;20198;-65
2022/03/06 04:44:27;;;;;;;5.65;3.65;;;7.70;99.90;;;;;;5063036;28;20240;-65
2022/03/06 04:46:58;;;;;;;3.60;3.30;;;7.60;99.90;;;;;;5058804;28;20519;-64
2022/03/06 04:49:29;;;;;;;5.03;3.55;;;7.50;99.90;;;;;;5063737;28;20225;-65
2022/03/06 04:52:00;;;;;;;3.75;3.05;;;7.50;99.90;;;;;;5067131;28;20212;-64
2022/03/06 04:54:33;;;;;;;3.83;3.50;;;7.50;99.90;;;;;;5063442;28;20202;-64
2022/03/06 04:57:05;;;;;;;4.18;3.88;;;7.40;99.90;;;;;;5066495;28;20736;-65
2022/03/06 04:59:36;;;;;;;4.97;3.80;;;7.30;99.90;;;;;;5063098;28;20202;-64
2022/03/06 05:02:07;;;;;;;4.05;3.75;;;7.20;99.90;;;;;;5064474;28;20551;-65
2022/03/06 05:04:39;;;;;;;4.22;3.92;;;7.20;99.90;;;;;;5063751;28;20245;-65
2022/03/06 05:07:10;;;;;;;4.15;3.83;;;7.10;99.90;;;;;;5062310;28;20212;-65
2022/03/06 05:09:42;;;;;;;4.15;3.75;;;7.10;99.90;;;;;;5065863;28;20233;-65
2022/03/06 05:12:14;;;;;;;5.57;4.40;;;7.20;99.90;;;;;;5065328;28;20231;-65
2022/03/06 05:14:49;;;;;;;3.95;3.65;;;7.10;99.90;;;;;;5063164;28;20577;-65
2022/03/06 05:17:19;;;;;;;3.92;3.63;;;7.00;99.90;;;;;;5057913;28;20288;-65
2022/03/06 05:19:55;;;;;;;4.55;4.20;;;7.00;99.90;;;;;;5063672;28;20269;-65
2022/03/06 05:22:26;;;;;;;4.38;3.95;;;7.00;99.90;;;;;;5070468;28;20209;-64
2022/03/06 05:24:59;;;;;;;4.18;3.83;;;6.90;99.90;;;;;;5066098;28;20212;-65
2022/03/06 05:27:30;;;;;;;4.50;4.15;;;6.80;99.90;;;;;;5058316;28;20206;-64
2022/03/06 05:30:01;;;;;;;4.10;3.80;;;6.80;99.90;;;;;;5063123;28;20225;-65
2022/03/06 05:32:33;;;;;;;4.68;4.20;;;6.80;99.90;;;;;;5062272;28;20194;-65
2022/03/06 05:35:06;;;;;;;8.98;4.35;;;6.80;99.90;;;;;;5054837;28;20615;-65
2022/03/06 05:37:36;;;;;;;4.28;3.88;;;6.70;99.90;;;;;;5061861;28;20230;-66
2022/03/06 05:40:11;;;;;;;4.03;3.72;;;6.60;99.90;;;;;;5069860;28;20201;-66
2022/03/06 05:42:42;;;;;;;5.75;4.25;;;6.60;99.90;;;;;;5064427;28;20205;-65
2022/03/06 05:45:16;;;;;;;5.63;4.22;;;6.50;99.90;;;;;;5069630;28;20228;-65
2022/03/06 05:47:47;;;;;;;11.00;5.35;;;6.50;99.90;;;;;;5062458;28;20256;-66
2022/03/06 05:50:19;;;;;;;4.90;4.47;;;6.50;99.90;;;;;;5067831;28;20220;-65
2022/03/06 05:52:50;;;;;;;7.88;4.95;;;6.50;99.90;;;;;;5066635;28;20238;-65
2022/03/06 05:55:25;;;;;;;6.75;4.82;;;6.50;99.90;;;;;;5069911;28;20216;-65
2022/03/06 05:57:56;;;;;;;4.65;4.35;;;6.50;99.90;;;;;;5062524;28;20302;-65
2022/03/06 06:00:30;;;;;;;4.90;4.30;;;6.40;99.90;;;;;;5054261;28;20258;-66
2022/03/06 06:03:02;;;;;;;5.50;5.00;;;6.40;99.90;;;;;;5063705;28;20236;-65
2022/03/06 06:05:36;;;;;;;6.72;5.00;;;6.30;99.90;;;;;;5062429;28;20265;-66
2022/03/06 06:08:09;;;;;;;5.72;5.05;;;6.20;99.90;;;;;;5064029;28;20224;-65
2022/03/06 06:10:48;;;;;;;6.90;5.00;;;6.20;99.90;;;;;;5064617;28;20256;-65
2022/03/06 06:13:19;;;;;;;5.75;4.88;;;6.10;99.90;;;;;;5061573;28;20206;-65
2022/03/06 06:15:53;;;;;;;8.55;4.85;;;6.10;99.90;;;;;;5061645;28;20248;-65
2022/03/06 06:18:26;;;;;;;5.30;4.82;;;6.10;99.90;;;;;;5060892;28;20213;-65
2022/03/06 06:20:57;;;;;;;6.20;5.65;;;6.00;99.90;;;;;;5072341;28;20198;-65
2022/03/06 06:23:28;;;;;;;5.25;4.80;;;6.00;99.90;;;;;;5062363;28;20281;-65
2022/03/06 06:26:05;;;;;;;6.43;5.82;;;6.00;99.90;;;;;;5065964;28;20258;-65
2022/03/06 06:28:36;;;;;;;6.53;5.90;;;6.00;99.90;;;;;;5053128;28;20283;-65
2022/03/06 06:31:10;;;;;;;6.35;5.22;;;5.90;99.90;;;;;;5061746;28;20226;-65
2022/03/06 06:33:41;;;;;;;5.57;5.07;;;5.90;99.90;;;;;;5055073;28;20232;-65
2022/03/06 06:36:12;;;;;;;6.55;5.45;;;5.80;99.90;;;;;;5061903;28;20524;-65
2022/03/06 06:38:46;;;;;;;6.50;5.80;;;5.80;99.90;;;;;;5063595;28;20218;-65
2022/03/06 06:41:21;;;;;;;6.63;6.07;;;5.70;99.90;;;;;;5062891;28;20210;-65
2022/03/06 06:43:54;;;;;;;7.97;7.18;;;5.70;99.90;;;;;;5051268;28;20202;-65
2022/03/06 06:46:25;;;;;;;6.85;6.25;;;5.70;99.90;;;;;;5063449;28;20234;-65
2022/03/06 06:48:59;;;;;;;6.20;5.40;;;5.60;99.90;;;;;;5065747;28;20303;-65
2022/03/06 06:51:33;;;;;;;7.78;6.88;;;5.50;99.90;;;;;;5078482;28;20235;-65
2022/03/06 06:54:04;;;;;;;7.57;6.18;;;5.50;99.90;;;;;;5070722;28;20218;-65
2022/03/06 06:56:39;;;;;;;8.77;7.18;;;5.40;99.90;;;;;;5072823;28;20225;-65
2022/03/06 06:59:11;;;;;;;7.97;6.90;;;5.30;99.90;;;;;;5068047;28;20601;-65
2022/03/06 07:01:45;;;;;;;7.35;6.00;;;5.40;99.90;;;;;;5066266;28;20248;-65
2022/03/06 07:04:17;;;;;;;9.80;7.57;;;5.30;99.90;;;;;;5066945;28;20213;-65
2022/03/06 07:06:51;;;;;;;9.85;8.63;;;5.30;99.90;;;;;;5064998;28;20265;-65
2022/03/06 07:09:22;;;;;;;9.20;8.00;;;5.20;99.90;;;;;;5071277;28;20265;-65
2022/03/06 07:11:58;;;;;;;11.05;8.35;;;5.20;99.90;;;;;;5064389;28;20301;-65
2022/03/06 07:14:29;;;;;;;10.00;9.05;;;5.20;99.90;;;;;;5065452;28;20240;-65
2022/03/06 07:17:04;;;;;;;9.40;8.50;;;5.10;99.90;;;;;;5065921;28;20665;-65
2022/03/06 07:19:36;;;;;;;10.40;8.63;;;5.00;99.90;;;;;;5065883;28;20231;-64
2022/03/06 07:22:10;;;;;;;9.80;8.85;;;5.00;99.90;;;;;;5065712;28;20243;-65
2022/03/06 07:24:41;;;;;;;10.63;9.57;;;5.00;99.90;;;;;;5067155;28;20185;-65
2022/03/06 07:27:24;;;;;;;12.20;11.00;;;4.90;99.90;;;;;;5061537;28;20205;-65
2022/03/06 07:29:58;;;;;;;11.55;10.07;;;4.90;99.90;;;;;;5066258;28;20234;-64
2022/03/06 07:32:29;;;;;;;12.10;10.75;;;4.90;99.90;;;;;;5064637;28;20202;-65
2022/03/06 07:35:01;;;;;;;13.20;10.30;;;4.80;99.90;;;;;;5065999;28;20202;-64
2022/03/06 07:37:35;;;;;;;13.80;11.35;;;4.80;99.90;;;;;;5066809;28;20213;-64
2022/03/06 07:40:07;;;;;;;14.85;10.95;;;4.70;99.90;;;;;;5066585;28;20691;-65
2022/03/06 07:42:40;;;;;;;13.02;11.70;;;4.70;99.90;;;;;;5058354;28;20627;-65
2022/03/06 07:45:12;;;;;;;13.05;11.68;;;4.70;99.90;;;;;;5065145;28;20198;-65
2022/03/06 07:47:44;;;;;;;14.50;11.30;;;4.70;99.90;;;;;;5062626;28;20204;-64
2022/03/06 07:50:16;;;;;;;13.43;10.93;;;4.80;99.90;;;;;;5068311;28;20253;-64
2022/03/06 07:52:53;;;;;;;12.68;11.30;;;4.80;99.90;;;;;;5074984;28;20210;-64
2022/03/06 07:55:24;;;;;;;14.32;11.00;;;4.70;99.90;;;;;;5065334;28;20227;-64
2022/03/06 07:57:58;;;;;;;11.70;10.45;;;4.60;99.90;;;;;;5066529;28;20234;-64
2022/03/06 08:00:29;;;;;;;12.57;10.85;;;4.60;99.90;;;;;;5065791;28;20285;-64
2022/03/06 08:03:00;;;;;;;11.68;10.48;;;4.60;99.90;;;;;;5065821;28;20309;-64
2022/03/06 08:05:32;;;;;;;13.63;11.30;;;4.60;99.90;;;;;;5066697;28;20273;-64
2022/03/06 08:08:03;;;;;;;15.50;11.10;;;4.60;99.90;;;;;;5069017;28;20512;-64
2022/03/06 08:10:34;;;;;;;15.27;11.40;;;4.50;99.90;;;;;;5075081;28;20236;-64
2022/03/06 08:13:06;;;;;;;11.75;10.55;;;4.50;99.90;;;;;;5065630;28;20186;-64
2022/03/06 08:15:40;;;;;;;13.10;11.00;;;4.50;99.90;;;;;;5065751;28;20225;-64
2022/03/06 08:18:12;;;;;;;12.25;11.00;;;4.40;99.90;;;;;;5063944;28;20213;-64
2022/03/06 08:20:43;;;;;;;13.05;11.25;;;4.40;99.90;;;;;;5073494;28;20277;-64
2022/03/06 08:23:17;;;;;;;12.00;10.73;;;4.30;99.90;;;;;;5062757;28;20202;-65
2022/03/06 08:25:48;;;;;;;14.10;11.20;;;4.30;99.90;;;;;;5068715;28;20217;-65
2022/03/06 08:28:21;;;;;;;12.18;10.88;;;4.40;99.90;;;;;;5063041;28;20618;-65
2022/03/06 08:30:51;;;;;;;10.75;9.65;;;4.30;99.90;;;;;;5063631;28;20289;-65
2022/03/06 08:33:22;;;;;;;11.15;10.05;;;4.30;99.90;;;;;;5064344;28;20206;-64
2022/03/06 08:35:55;;;;;;;13.32;10.00;;;4.20;99.90;;;;;;5063779;28;20245;-64
2022/03/06 08:38:26;;;;;;;13.27;10.57;;;4.20;99.90;;;;;;5066677;28;20300;-64
2022/03/06 08:40:57;;;;;;;14.23;10.98;;;4.10;99.90;;;;;;5064031;28;20198;-64
2022/03/06 08:43:30;;;;;;;12.50;11.13;;;4.10;99.90;;;;;;5073011;28;20190;-65
2022/03/06 08:46:03;;;;;;;16.27;11.15;;;4.10;99.90;;;;;;5064711;28;20260;-64
2022/03/06 08:48:36;;;;;;;14.57;11.18;;;4.10;99.90;;;;;;5064049;28;20261;-64
2022/03/06 08:51:08;;;;;;;11.40;10.25;;;4.00;99.90;;;;;;5055332;28;20311;-64
2022/03/06 08:53:43;;;;;;;13.43;10.50;;;4.10;99.90;;;;;;5063156;28;20399;-64
2022/03/06 08:56:14;;;;;;;13.30;11.55;;;4.00;99.90;;;;;;5063827;28;20241;-64
2022/03/06 08:58:46;;;;;;;13.55;11.15;;;4.00;99.90;;;;;;5067670;28;20244;-64
2022/03/06 09:01:17;;;;;;;11.82;10.63;;;4.10;99.90;;;;;;5065238;28;20296;-64
2022/03/06 09:03:49;;;;;;;11.25;10.15;;;4.00;99.90;;;;;;5053499;28;20285;-64
2022/03/06 09:06:20;;;;;;;12.18;8.93;;;4.00;99.90;;;;;;5078001;28;20253;-64
2022/03/06 09:08:51;;;;;;;10.60;8.52;;;4.00;99.90;;;;;;5062502;28;20202;-64
2022/03/06 09:11:22;;;;;;;10.57;9.57;;;3.90;99.90;;;;;;5067882;28;20305;-64
2022/03/06 09:13:55;;;;;;;10.40;9.30;;;3.80;99.90;;;;;;5062773;28;20196;-64
2022/03/06 09:16:26;;;;;;;10.75;9.60;;;3.90;99.90;;;;;;5048244;28;20661;-64
2022/03/06 09:18:57;;;;;;;10.85;9.32;;;3.90;99.90;;;;;;5068588;28;20221;-64
2022/03/06 09:21:28;;;;;;;10.82;9.30;;;3.90;99.90;;;;;;5063303;28;20194;-64
2022/03/06 09:23:59;;;;;;;11.55;8.27;;;3.80;99.90;;;;;;5063250;28;20301;-64
2022/03/06 09:26:30;;;;;;;9.52;8.63;;;3.70;99.90;;;;;;5063253;28;20218;-64
2022/03/06 09:29:04;;;;;;;10.88;8.45;;;3.70;99.90;;;;;;5062465;28;20229;-64
2022/03/06 09:31:35;;;;;;;10.40;8.55;;;3.70;99.90;;;;;;5062718;28;20241;-64
2022/03/06 09:34:06;;;;;;;10.05;9.15;;;3.70;99.90;;;;;;5062104;28;20198;-64
2022/03/06 09:36:51;;;;;;;10.20;8.85;;;3.60;99.90;;;;;;5063253;28;20206;-64
2022/03/06 09:39:22;;;;;;;10.55;9.30;;;3.60;99.90;;;;;;5062726;28;20209;-64
2022/03/06 09:41:57;;;;;;;11.38;9.43;;;3.50;99.90;;;;;;5063717;28;20217;-64
2022/03/06 09:44:30;;;;;;;10.65;9.00;;;3.60;99.90;;;;;;5065508;28;20190;-64
2022/03/06 09:47:01;;;;;;;10.15;8.80;;;3.60;99.90;;;;;;5064787;28;20208;-64
2022/03/06 09:49:32;;;;;;;9.80;8.88;;;3.60;99.90;;;;;;5070478;28;20202;-64
2022/03/06 09:52:04;;;;;;;9.57;8.15;;;3.60;99.90;;;;;;5065602;28;20623;-64
2022/03/06 09:54:35;;;;;;;10.48;9.00;;;3.50;99.90;;;;;;5065237;28;20296;-64
2022/03/06 09:57:07;;;;;;;9.80;8.40;;;3.50;99.90;;;;;;5062175;28;20221;-64
2022/03/06 09:59:39;;;;;;;12.13;9.43;;;3.60;99.90;;;;;;5067518;28;20273;-64
2022/03/06 10:02:10;;;;;;;12.93;8.90;;;3.60;99.90;;;;;;5061563;28;20258;-64
2022/03/06 10:04:42;;;;;;;8.73;7.93;;;3.80;99.90;;;;;;5063336;28;20251;-64
2022/03/06 10:07:14;;;;;;;11.57;7.68;;;3.70;99.90;;;;;;5063537;28;20204;-64
2022/03/06 10:09:46;;;;;;;8.95;7.30;;;3.70;99.90;;;;;;5076374;28;20202;-64
2022/03/06 10:12:21;;;;;;;9.38;8.15;;;3.60;99.90;;;;;;5064910;28;20700;-64
2022/03/06 10:14:57;;;;;;;9.07;8.18;;;3.60;99.90;;;;;;5068104;28;20217;-64
2022/03/06 10:17:32;;;;;;;10.07;7.97;;;3.50;99.90;;;;;;5063086;28;20725;-64
2022/03/06 10:20:09;;;;;;;9.18;8.38;;;3.50;99.90;;;;;;5064853;28;20255;-64
2022/03/06 10:22:41;;;;;;;9.85;7.88;;;3.60;99.90;;;;;;5064185;28;20262;-64
2022/03/06 10:25:16;;;;;;;8.63;7.68;;;3.80;99.90;;;;;;5069731;28;20323;-64
2022/03/06 10:27:53;;;;;;;9.25;7.22;;;3.90;99.90;;;;;;5076428;28;20302;-64
2022/03/06 10:30:30;;;;;;;9.82;7.70;;;3.90;99.90;;;;;;5071507;28;20228;-64
2022/03/06 10:33:07;;;;;;;11.45;8.07;;;4.00;99.90;;;;;;5076618;28;20691;-64
2022/03/06 10:35:39;;;;;;;8.90;7.28;;;4.10;99.90;;;;;;5067892;28;20285;-64
2022/03/06 10:38:26;;;;;;;9.30;7.35;;;4.20;99.90;;;;;;5068473;28;20622;-64
2022/03/06 10:40:59;;;;;;;8.50;7.50;;;4.30;99.90;;;;;;5073338;28;20211;-64
2022/03/06 10:43:31;;;;;;;10.02;8.35;;;4.40;99.90;;;;;;5066139;28;20206;-64
2022/03/06 10:46:11;;;;;;;11.68;8.40;;;4.60;99.90;;;;;;5068195;28;20202;-65
2022/03/06 10:48:44;;;;;;;11.68;9.57;;;4.70;99.90;;;;;;5069639;28;20209;-64
2022/03/06 10:51:18;;;;;;;14.65;9.55;;;4.80;99.90;;;;;;5076589;28;20219;-64
2022/03/06 10:53:53;;;;;;;12.70;10.45;;;4.90;99.90;;;;;;5082207;28;20205;-64
2022/03/06 10:56:25;;;;;;;11.25;9.63;;;5.10;99.90;;;;;;5068731;28;20206;-65
2022/03/06 10:58:57;;;;;;;11.63;9.18;;;5.20;99.90;;;;;;5068070;28;20205;-64
2022/03/06 11:01:32;;;;;;;13.85;10.40;;;5.30;99.90;;;;;;5067901;28;20210;-64
2022/03/06 11:04:04;;;;;;;18.15;10.45;;;5.40;99.90;;;;;;5054004;28;20212;-64
2022/03/06 11:06:41;;;;;;;15.45;10.80;;;5.50;99.90;;;;;;5054073;28;20194;-64
2022/03/06 11:09:13;;;;;;;14.68;10.38;;;5.60;99.90;;;;;;5068565;28;20233;-64
2022/03/06 11:11:48;;;;;;;15.88;10.85;;;5.60;99.90;;;;;;5069341;28;20230;-64
2022/03/06 11:14:20;;;;;;;11.48;10.35;;;5.60;99.90;;;;;;5066881;28;20236;-64
2022/03/06 11:16:54;;;;;;;14.23;10.82;;;5.70;99.90;;;;;;5082395;28;20210;-65
2022/03/06 11:19:26;;;;;;;14.43;11.43;;;5.90;99.90;;;;;;5065801;28;20251;-64
2022/03/06 11:22:04;;;;;;;14.95;11.68;;;5.90;99.90;;;;;;5073856;28;20225;-64
2022/03/06 11:24:36;;;;;;;14.15;10.68;;;6.00;99.90;;;;;;5063597;28;20197;-64
2022/03/06 11:27:35;;;;;;;13.15;11.80;;;6.00;99.90;;;;;;5067354;28;20206;-64
2022/03/06 11:30:10;;;;;;;11.73;10.40;;;6.10;99.90;;;;;;5064188;28;20245;-65
2022/03/06 11:32:43;;;;;;;14.32;10.20;;;6.10;99.90;;;;;;5062176;28;20591;-64
2022/03/06 11:35:17;;;;;;;13.70;11.10;;;6.00;99.90;;;;;;5050795;28;20202;-64
2022/03/06 11:37:56;;;;;;;14.70;11.05;;;6.10;99.90;;;;;;5060904;28;20194;-64
2022/03/06 11:40:48;;;;;;;12.55;10.50;;;6.10;99.90;;;;;;5062328;28;20193;-64
2022/03/06 11:43:43;;;;;;;14.93;11.07;;;6.10;99.90;;;;;;5065579;28;20206;-64
2022/03/06 11:46:17;;;;;;;13.32;10.93;;;6.20;99.90;;;;;;5062865;28;20261;-64
2022/03/06 11:49:15;;;;;;;13.10;10.45;;;6.20;99.90;;;;;;5064852;28;20503;-64
2022/03/06 11:51:47;;;;;;;12.32;9.85;;;6.20;99.90;;;;;;5061594;28;20206;-64
2022/03/06 11:54:24;;;;;;;11.93;10.73;;;6.20;99.90;;;;;;5060003;28;20211;-63
2022/03/06 11:57:00;;;;;;;17.20;10.30;;;6.30;99.90;;;;;;5075238;28;20198;-64
2022/03/06 11:59:49;;;;;;;13.95;10.70;;;6.30;99.90;;;;;;5055814;28;20208;-64
2022/03/06 12:02:23;;;;;;;11.65;9.55;;;6.30;99.90;;;;;;5068183;28;20254;-65
2022/03/06 12:04:58;;;;;;;12.40;10.38;;;6.30;99.90;;;;;;5065781;28;20205;-65
2022/03/06 12:07:33;;;;;;;12.63;10.07;;;6.30;99.90;;;;;;5064474;28;20197;-64
2022/03/06 12:10:10;;;;;;;10.95;9.82;;;6.30;99.90;;;;;;5064706;28;20266;-64
2022/03/06 12:12:43;;;;;;;12.73;9.70;;;6.30;99.90;;;;;;5062604;28;20673;-64
2022/03/06 12:15:16;;;;;;;13.60;12.15;;;6.30;99.90;;;;;;5064300;28;20257;-64
2022/03/06 12:17:47;;;;;;;13.43;10.65;;;6.30;99.90;;;;;;5063858;28;20683;-65
2022/03/06 12:20:42;;;;;;;11.95;10.75;;;6.40;99.90;;;;;;5068254;28;20187;-64
2022/03/06 12:23:31;;;;;;;16.02;12.82;;;6.30;99.90;;;;;;5062619;28;20265;-65
2022/03/06 12:26:02;;;;;;;14.65;13.15;;;6.30;99.90;;;;;;5061951;28;20194;-64
2022/03/06 12:28:41;;;;;;;13.45;12.15;;;6.30;99.90;;;;;;5062112;28;20205;-65
2022/03/06 12:31:34;;;;;;;14.68;12.93;;;6.30;99.90;;;;;;5069937;28;20197;-64
2022/03/06 12:34:39;;;;;;;13.95;12.52;;;6.30;99.90;;;;;;5062200;28;20321;-64
2022/03/06 12:37:12;;;;;;;14.30;12.95;;;6.30;99.90;;;;;;5057112;28;20209;-64
2022/03/06 12:39:42;;;;;;;17.52;12.35;;;6.30;99.90;;;;;;5064158;28;20279;-64
2022/03/06 12:42:13;;;;;;;15.45;12.93;;;6.40;99.90;;;;;;5062633;28;20209;-64
2022/03/06 12:44:47;;;;;;;14.45;12.05;;;6.50;99.90;;;;;;5062506;28;20611;-64
2022/03/06 12:47:18;;;;;;;13.10;11.82;;;6.30;99.90;;;;;;5065858;28;20733;-64
2022/03/06 12:49:55;;;;;;;14.10;12.60;;;6.30;99.90;;;;;;5073328;28;20296;-64
2022/03/06 12:52:29;;;;;;;13.55;12.23;;;6.40;99.90;;;;;;5066023;28;20230;-64
2022/03/06 12:55:05;;;;;;;13.10;11.82;;;6.30;99.90;;;;;;5064564;28;20193;-64
2022/03/06 12:57:40;;;;;;;12.98;11.70;;;6.30;99.90;;;;;;5062861;28;20277;-64
2022/03/06 13:00:15;;;;;;;13.40;12.10;;;6.30;99.90;;;;;;5063240;28;20235;-64
2022/03/06 13:02:49;;;;;;;13.30;11.50;;;6.40;99.90;;;;;;5063636;28;20201;-64
2022/03/06 13:05:22;;;;;;;11.80;10.38;;;6.20;99.90;;;;;;5064145;28;20194;-64
2022/03/06 13:07:56;;;;;;;14.02;11.00;;;6.30;99.90;;;;;;5063865;28;20244;-64
2022/03/06 13:10:28;;;;;;;12.85;11.48;;;6.30;99.90;;;;;;5064451;28;20207;-64
2022/03/06 13:13:01;;;;;;;13.82;11.20;;;6.30;99.90;;;;;;5060984;28;20217;-64
2022/03/06 13:15:33;;;;;;;10.43;9.40;;;6.30;99.90;;;;;;5063384;28;20572;-64
2022/03/06 13:18:07;;;;;;;13.45;12.05;;;6.40;99.90;;;;;;5064050;28;20213;-64
2022/03/06 13:20:40;;;;;;;14.25;11.20;;;6.40;99.90;;;;;;5064092;28;20196;-64